Steptoe Valley North, Nevada Weather observations

Data are for 10 minute period ending at time listed.
 Day   Time   Solar   Ave.   Ave.  Ave.  Vector  Max.   Baro.   Total    
  of    of     Rad.   Air    Rel.  Wind   Wind   Wind  Press.  Precip.   
Year   Day            Temp.  Hum.  Speed  Dir.   Gust                    
2015   (PST)  Kw/m2    F      %     mph   deg.    mph    mb.     in.     
-------------------------------------------------------------------------
 246   13:00   0.80   75.5    29   15.7   190    24.0   815.6    0.00 
 246   13:10   0.85   74.8    29   18.2   189    32.6   815.5    0.00 
 246   13:20   1.01   75.5    30   17.2   189    28.6   815.4    0.00 
 246   13:30   0.86   75.7    29   17.2   198    30.1   815.3    0.00 
 246   13:40   0.87   75.5    28   16.1   188    27.3   815.2    0.00 
 246   13:50   0.72   75.2    28   15.4   196    28.4   815.1    0.00 
 246   14:00   0.58   74.6    27   18.5   191    31.0   815.0    0.00 
 246   14:10   0.85   75.3    27   18.3   195    30.5   814.9    0.00 
 246   14:20   0.72   75.6    28   17.6   185    26.0   814.8    0.00 
 246   14:30   0.20   72.6    27   17.8   180    29.7   814.6    0.00 
 246   14:40   0.42   73.5    26   19.8   195    29.2   814.5    0.00 
 246   14:50   0.30   72.5    26   17.1   190    24.8   814.5    0.00 
 246   15:00   0.65   74.5    26   16.6   192    27.1   814.4    0.00 
 246   15:10   0.67   75.6    22   17.5   200    24.9   814.3    0.00 
 246   15:20   0.59   74.8    22   20.0   223    30.2   814.3    0.00 
 246   15:30   0.56   74.0    21   21.0   225    30.0   814.3    0.00 
 246   15:40   0.52   73.4    23   19.2   216    28.4   814.4    0.00 
 246   15:50   0.48   72.8    25   17.8   208    26.9   814.4    0.00 
 246   16:00   0.44   72.3    23   19.2   203    27.5   814.3    0.00 
 246   16:10   0.40   74.0    19   18.6   209    28.1   814.2    0.00 
 246   16:20   0.37   74.7    18   17.3   212    27.2   814.2    0.00 
 246   16:30   0.33   74.6    19   16.2   210    23.4   814.2    0.00 
 246   16:40   0.18   73.4    20   15.6   200    23.1   814.1    0.00 
 246   16:50   0.25   72.9    19   16.4   193    24.8   814.1    0.00 
 246   17:00   0.22   73.7    18   15.9   200    23.5   814.1    0.00 
 246   17:10   0.18   73.4    18   15.4   202    26.6   814.1    0.00 
 246   17:20   0.15   72.9    18   16.0   196    23.8   814.0    0.00 
 246   17:30   0.11   72.6    18   14.5   200    21.5   814.0    0.00 
 246   17:40   0.04   71.5    18   13.2   199    18.4   814.1    0.00 
 246   17:50   0.02   70.5    18   14.0   193    20.8   814.0    0.00 
 246   18:00   0.01   69.8    19   12.2   196    19.3   814.1    0.00 
 246   18:10   0.01   69.5    18   11.7   198    18.5   814.1    0.00 
 246   18:20   0.00   67.7    21    8.8   195    12.6   814.1    0.00 
 246   18:30   0.00   65.4    23    7.8   191    11.6   814.2    0.00 
 246   18:40   0.00   64.1    25    6.9   186     8.9   814.2    0.00 
 246   18:50   0.00   62.7    26    6.9   190    11.2   814.3    0.00 
 246   19:00   0.00   62.3    26    6.6   189     9.0   814.4    0.00 
 246   19:10   0.00   60.9    28    6.0   182     7.7   814.5    0.00 
 246   19:20   0.00   59.5    30    5.8   187     7.2   814.5    0.00 
 246   19:30   0.00   58.5    35    5.5   179     6.8   814.5    0.00 
 246   19:40   0.00   57.9    34    6.4   188    12.6   814.6    0.00 
 246   19:50   0.00   62.9    26   10.7   183    19.5   814.6    0.00 
 246   20:00   0.00   66.4    23   12.2   184    18.9   814.7    0.00 
 246   20:10   0.00   67.1    22   12.9   184    21.7   814.8    0.00 
 246   20:20   0.00   67.4    22   14.5   184    21.0   814.9    0.00 
 246   20:30   0.00   67.1    22   14.2   185    21.1   814.9    0.00 
 246   20:40   0.00   67.5    22   14.6   185    21.9   814.9    0.00 
 246   20:50   0.00   67.6    21   16.0   189    23.8   815.0    0.00 
 246   21:00   0.00   67.7    21   16.2   196    23.2   814.9    0.00 
 246   21:10   0.00   67.5    20   16.3   210    23.5   814.9    0.00 
 246   21:20   0.00   64.0    24    8.5   214    13.8   815.1    0.00 
 246   21:30   0.00   61.7    26    7.5   206    11.8   815.1    0.00 
 246   21:40   0.00   60.9    27    6.2   214     9.9   815.1    0.00 
 246   21:50   0.00   60.0    28    5.0   202     9.1   815.1    0.00 
 246   22:00   0.00   58.5    30    5.3   175     8.1   815.1    0.00 
 246   22:10   0.00   57.0    35    5.3   173     7.5   815.3    0.00 
 246   22:20   0.00   56.3    34    5.0   190     6.4   815.3    0.00 
 246   22:30   0.00   57.3    31    6.3   215    10.5   815.3    0.00 
 246   22:40   0.00   58.8    29    7.8   191    12.2   815.2    0.00 
 246   22:50   0.00   60.6    26   10.3   197    16.7   815.2    0.00 
 246   23:00   0.00   62.0    25   10.6   203    17.2   815.2    0.00 
 246   23:10   0.00   61.5    25   10.6   201    18.0   815.3    0.00 
 246   23:20   0.00   62.9    23   15.3   206    22.5   815.3    0.00 
 246   23:30   0.00   64.3    22   16.5   212    25.0   815.5    0.00 
 246   23:40   0.00   63.8    22   14.4   211    22.7   815.6    0.00 
 246   23:50   0.00   62.2    24   12.9   212    17.8   815.6    0.00 
 247    0:00   0.00   61.5    25   12.7   210    16.9   815.6    0.00 
 247    0:10   0.00   60.9    26   10.9   199    16.4   815.7    0.00 
 247    0:20   0.00   59.4    28   10.3   195    15.9   815.7    0.00 
 247    0:30   0.00   58.7    29    8.7   197    12.0   815.8    0.00 
 247    0:40   0.00   57.1    32    7.8   192    11.8   815.7    0.00 
 247    0:50   0.00   57.3    31    9.6   192    13.4   815.5    0.00 
 247    1:00   0.00   58.0    31   10.4   199    16.8   815.5    0.00 
 247    1:10   0.00   59.3    29   10.4   207    14.5   815.5    0.00 
 247    1:20   0.00   58.1    31    9.1   216    11.8   815.5    0.00 
 247    1:30   0.00   57.7    32    9.1   215    11.8   815.4    0.00 
 247    1:40   0.00   57.8    32    8.9   211    12.8   815.4    0.00 
 247    1:50   0.00   56.7    34    7.0   201    10.2   815.4    0.00 
 247    2:00   0.00   54.6    40    5.1   194     6.6   815.3    0.00 
 247    2:10   0.00   52.4    49    4.3   164     5.1   815.2    0.00 
 247    2:20   0.00   51.1    44    4.0   120     4.7   815.2    0.00 
 247    2:30   0.00   50.2    43    4.3   107     4.9   815.0    0.00 
 247    2:40   0.00   49.7    44    3.8   102     5.0   814.9    0.00 
 247    2:50   0.00   49.6    45    4.6   106     6.4   814.9    0.00 
 247    3:00   0.00   47.6    54    6.0   112     6.7   814.9    0.00 
 247    3:10   0.00   47.6    57    4.9   125     6.4   815.0    0.00 
 247    3:20   0.00   48.1    56    3.4   146     4.8   815.0    0.00 
 247    3:30   0.00   49.7    48    2.6   120     3.8   815.0    0.00 
 247    3:40   0.00   52.0    47    4.0   142     4.8   814.9    0.00 
 247    3:50   0.00   51.2    51    3.6   164     4.7   815.0    0.00 
 247    4:00   0.00   50.7    47    3.0   202     3.8   815.0    0.00 
 247    4:10   0.00   50.4    46    3.1   205     4.2   815.0    0.00 
 247    4:20   0.00   49.7    49    3.4   168     4.7   815.0    0.00 
 247    4:30   0.00   49.0    54    4.3   148     6.1   815.1    0.00 
 247    4:40   0.00   47.7    58    3.4   158     4.9   815.1    0.00 
 247    4:50   0.00   47.8    58    4.8   166     6.6   815.1    0.00 
 247    5:00   0.00   48.0    57    5.1   176     7.7   815.1    0.00 
 247    5:10   0.00   49.1    55    5.3   154     7.9   815.1    0.00 
 247    5:20   0.01   49.0    56    5.2   140     6.6   815.2    0.00 
 247    5:30   0.02   48.2    60    5.1   127     7.0   815.3    0.00 
 247    5:40   0.05   48.1    57    4.9   124     6.1   815.4    0.00 
 247    5:50   0.10   50.5    54    4.4   137     5.8   815.5    0.00 
 247    6:00   0.13   53.1    52    4.1   143     5.3   815.6    0.00 
 247    6:10   0.16   55.0    51    3.6   157     5.1   815.6    0.00 
 247    6:20   0.18   57.6    48    4.6   184     7.7   815.7    0.00 
 247    6:30   0.14   57.1    47    6.0   199     8.7   815.8    0.00 
 247    6:40   0.25   57.1    46    6.9   204    11.5   815.9    0.00 
 247    6:50   0.31   59.7    43    8.4   200    11.5   815.9    0.00 
 247    7:00   0.36   61.1    39   10.6   197    18.4   815.9    0.00 
 247    7:10   0.40   62.4    39   11.9   200    18.6   815.9    0.00 
 247    7:20   0.44   63.9    39   12.1   191    21.7   816.0    0.00 
 247    7:30   0.48   64.1    37   16.2   185    25.4   815.9    0.00 
 247    7:40   0.52   64.2    36   18.0   188    25.5   815.9    0.00 
 247    7:50   0.55   64.7    36   18.2   193    27.6   815.9    0.00 
 247    8:00   0.59   65.1    35   19.6   185    29.7   815.9    0.00 
 247    8:10   0.62   65.5    36   17.0   190    25.9   816.0    0.00 
 247    8:20   0.66   65.6    34   21.6   190    33.0   815.9    0.00 
 247    8:30   0.69   66.0    33   21.2   191    32.4   815.9    0.00 
 247    8:40   0.73   66.3    32   20.5   193    28.2   816.0    0.00 
 247    8:50   0.76   66.6    32   18.4   189    27.9   816.1    0.00 
 247    9:00   0.79   67.1    31   17.9   188    24.8   816.1    0.00 
 247    9:10   0.81   67.3    31   16.8   191    23.7   816.1    0.00 
 247    9:20   0.84   67.4    32   17.0   193    27.5   816.1    0.00 
 247    9:30   0.87   67.7    31   16.5   197    25.4   816.1    0.00 
 247    9:40   0.89   68.0    30   17.3   201    28.1   815.9    0.00 
 247    9:50   0.91   68.3    29   15.9   211    26.1   815.9    0.00 
 247   10:00   0.93   68.8    29   15.6   194    26.4   815.7    0.00 
 247   10:10   0.95   68.7    26   18.2   204    28.0   815.7    0.00 
 247   10:20   0.97   69.0    25   17.0   209    25.0   815.6    0.00 
 247   10:30   0.99   69.7    26   17.7   196    28.3   815.5    0.00 
 247   10:40   1.00   69.4    27   19.5   192    32.6   815.3    0.00 
 247   10:50   1.01   69.9    28   16.7   196    26.5   815.2    0.00 
 247   11:00   1.02   70.5    28   14.9   191    24.6   815.1    0.00 
 247   11:10   1.03   70.3    28   18.6   173    26.7   814.9    0.00 
 247   11:20   1.03   70.2    29   19.1   187    28.8   814.8    0.00 
 247   11:30   1.03   70.2    28   18.4   183    29.0   814.8    0.00 
 247   11:40   1.03   71.0    29   16.0   188    29.1   814.6    0.00 
 247   11:50   1.03   71.1    28   17.1   199    24.5   814.6    0.00 
 247   12:00   1.05   71.5    29   16.2   186    29.1   814.4    0.00 
 247   12:10   1.07   71.8    29   18.0   186    28.2   814.3    0.00 
 247   12:20   1.05   71.6    28   19.4   190    28.4   814.1    0.00 
 247   12:30   0.97   71.5    28   19.4   186    30.2   813.9    0.00 
 247   12:40   0.96   71.8    28   17.5   185    29.2   813.9    0.00 
 247   12:50   0.83   72.0    28   17.9   194    31.4   813.8    0.00 

Return to Steptoe Valley North graphs page.


Western Regional Climate Center,wrcc@dri.edu